Time;durP1;ratioP1;P1;durP2;ratioP2;P2;SDS_P1;SDS_P2;PMS_P1;PMS_P2;Temp;Humidity;BMP_temperature;BMP_pressure;BME280_temperature;BME280_humidity;BME280_pressure;Samples;Min_cycle;Max_cycle;Signal;HPM_P1;HPM_P2
2022/03/02 00:01:30;;;;;;;24.05;11.75;;;;;;;3.42;59.87;102383.69;4990750;28;20045;-78
2022/03/02 00:03:56;;;;;;;27.17;13.27;;;;;;;3.39;61.26;102384.66;5002512;28;20025;-77
2022/03/02 00:06:22;;;;;;;29.70;13.27;;;;;;;3.28;61.22;102379.19;4967405;28;20049;-77
2022/03/02 00:08:47;;;;;;;26.27;11.73;;;;;;;3.43;58.45;102372.53;4988884;28;20034;-77
2022/03/02 00:11:13;;;;;;;24.42;11.15;;;;;;;3.52;57.03;102374.66;5000879;28;20380;-79
2022/03/02 00:13:39;;;;;;;28.27;12.00;;;;;;;3.54;55.96;102372.03;5004076;28;20491;-77
2022/03/02 00:16:05;;;;;;;25.67;11.23;;;;;;;3.48;56.00;102368.84;4989277;28;20100;-77
2022/03/02 00:18:31;;;;;;;24.20;11.43;;;;;;;3.51;56.17;102373.00;4990401;28;20076;-77
2022/03/02 00:20:56;;;;;;;23.17;11.48;;;;;;;3.46;56.35;102370.63;5006306;28;20026;-77
2022/03/02 00:23:22;;;;;;;23.50;10.65;;;;;;;3.35;56.97;102383.13;4971522;28;20489;-78
2022/03/02 00:25:47;;;;;;;21.88;10.15;;;;;;;3.28;57.55;102381.75;4991650;28;20045;-77
2022/03/02 00:28:13;;;;;;;25.77;11.32;;;;;;;3.25;58.27;102375.03;5010721;28;20566;-77
2022/03/02 00:30:40;;;;;;;25.20;12.05;;;;;;;3.24;58.59;102383.63;4989348;28;20157;-77
2022/03/02 00:33:05;;;;;;;23.80;11.52;;;;;;;3.27;59.37;102373.22;4984598;28;20034;-77
2022/03/02 00:35:31;;;;;;;26.95;12.20;;;;;;;3.20;59.84;102378.69;5004529;28;20037;-77
2022/03/02 00:37:56;;;;;;;27.75;11.52;;;;;;;3.17;60.31;102376.28;4987799;28;20038;-77
2022/03/02 00:40:22;;;;;;;24.27;12.35;;;;;;;3.21;59.18;102375.25;5005056;28;20038;-77
2022/03/02 00:42:47;;;;;;;27.48;11.38;;;;;;;3.25;58.83;102366.50;4971023;28;20034;-76
2022/03/02 00:45:13;;;;;;;31.35;12.30;;;;;;;3.20;58.96;102364.16;4986510;28;20038;-77
2022/03/02 00:47:38;;;;;;;26.48;10.82;;;;;;;3.33;57.50;102366.16;5008507;28;20048;-77
2022/03/02 00:50:05;;;;;;;26.40;10.63;;;;;;;3.28;57.13;102362.06;5004192;28;20097;-76
2022/03/02 00:52:31;;;;;;;25.70;11.00;;;;;;;3.21;56.56;102357.31;5001618;28;20034;-78
2022/03/02 00:54:57;;;;;;;21.95;10.30;;;;;;;3.22;55.84;102353.81;4984014;28;20033;-77
2022/03/02 00:57:22;;;;;;;29.40;12.73;;;;;;;3.28;55.64;102361.25;4987892;28;20401;-78
2022/03/02 00:59:48;;;;;;;22.58;10.68;;;;;;;3.15;55.80;102355.84;5003097;28;20034;-77
2022/03/02 01:02:14;;;;;;;27.45;10.65;;;;;;;3.05;56.05;102357.16;4985881;28;20489;-76
2022/03/02 01:04:39;;;;;;;25.05;9.60;;;;;;;2.97;56.92;102361.78;4988351;28;20807;-76
2022/03/02 01:07:05;;;;;;;21.92;10.15;;;;;;;2.92;57.31;102359.44;4975760;28;20037;-77
2022/03/02 01:09:30;;;;;;;21.20;10.10;;;;;;;2.88;57.93;102363.88;4988525;28;20492;-78
2022/03/02 01:11:57;;;;;;;24.95;11.10;;;;;;;2.90;57.73;102351.81;4990973;28;20043;-77
2022/03/02 01:14:23;;;;;;;28.42;11.73;;;;;;;2.81;58.32;102344.53;4987133;28;20080;-77
2022/03/02 01:16:49;;;;;;;24.23;10.65;;;;;;;2.77;58.10;102345.59;5007435;28;20575;-77
2022/03/02 01:19:14;;;;;;;28.38;10.95;;;;;;;2.80;58.25;102330.06;4991697;28;20499;-77
2022/03/02 01:21:40;;;;;;;23.95;10.93;;;;;;;2.78;57.20;102331.03;5003423;28;20038;-77
2022/03/02 01:24:06;;;;;;;26.17;10.57;;;;;;;2.81;56.33;102336.03;4985505;28;20042;-77
2022/03/02 01:26:32;;;;;;;22.95;10.90;;;;;;;2.77;56.68;102326.78;5003242;28;20038;-78
2022/03/02 01:28:57;;;;;;;22.45;10.57;;;;;;;2.65;56.43;102335.84;5004257;28;20030;-76
2022/03/02 01:31:24;;;;;;;26.77;10.73;;;;;;;2.58;57.00;102332.75;4993128;28;20125;-78
2022/03/02 01:33:50;;;;;;;20.95;10.13;;;;;;;2.54;57.47;102331.19;4989804;28;20033;-77
2022/03/02 01:36:17;;;;;;;23.27;10.35;;;;;;;2.51;58.23;102324.47;4998450;28;20413;-78
2022/03/02 01:38:43;;;;;;;21.20;10.82;;;;;;;2.51;58.23;102328.78;4987734;28;20130;-79
2022/03/02 01:41:09;;;;;;;20.13;9.93;;;;;;;2.48;58.43;102323.78;5002902;28;20108;-77
2022/03/02 01:43:34;;;;;;;19.90;9.98;;;;;;;2.45;58.32;102327.31;4985486;28;20038;-77
2022/03/02 01:46:00;;;;;;;23.65;10.18;;;;;;;2.43;58.81;102331.69;4986554;28;20100;-77
2022/03/02 01:48:25;;;;;;;23.08;10.15;;;;;;;2.39;59.18;102322.44;5004054;28;20038;-77
2022/03/02 01:50:51;;;;;;;23.73;10.57;;;;;;;2.39;58.59;102325.00;4997730;28;20033;-77
2022/03/02 01:53:16;;;;;;;25.80;10.57;;;;;;;2.46;56.54;102320.47;4996458;28;20095;-77
2022/03/02 01:55:41;;;;;;;28.65;10.57;;;;;;;2.36;57.47;102324.31;4982667;28;20083;-76
2022/03/02 01:58:08;;;;;;;23.10;10.18;;;;;;;2.37;57.37;102315.72;5003825;28;20087;-77
2022/03/02 02:00:34;;;;;;;22.23;9.68;;;;;;;2.29;57.19;102309.19;5001642;28;20044;-77
2022/03/02 02:03:00;;;;;;;26.15;11.27;;;;;;;2.27;57.27;102310.19;5004207;28;20038;-77
2022/03/02 02:05:25;;;;;;;21.98;10.70;;;;;;;2.20;58.44;102311.31;4985977;28;20475;-77
2022/03/02 02:07:51;;;;;;;22.17;9.27;;;;;;;2.15;59.53;102306.41;5003375;28;20116;-77
2022/03/02 02:10:17;;;;;;;22.73;9.45;;;;;;;2.12;60.06;102309.09;4983163;28;20034;-76
2022/03/02 02:12:42;;;;;;;19.08;9.60;;;;;;;2.08;60.92;102310.94;4986139;28;20049;-77
2022/03/02 02:15:09;;;;;;;20.10;9.88;;;;;;;2.04;61.13;102308.59;5000573;28;20038;-77
2022/03/02 02:17:35;;;;;;;22.70;10.90;;;;;;;1.99;61.63;102308.75;4987799;28;20477;-76
2022/03/02 02:20:03;;;;;;;24.15;10.68;;;;;;;1.96;62.18;102308.91;4987031;28;20033;-77
2022/03/02 02:22:28;;;;;;;24.98;10.63;;;;;;;1.94;62.43;102308.09;4985983;28;20049;-77
2022/03/02 02:24:58;;;;;;;24.90;12.32;;;;;;;1.92;62.61;102304.78;4971939;28;20034;-77
2022/03/02 02:27:23;;;;;;;24.40;10.73;;;;;;;1.88;63.07;102304.06;5000295;28;20034;-76
2022/03/02 02:29:50;;;;;;;31.70;10.27;;;;;;;1.84;62.64;102302.53;4970061;28;20587;-77
2022/03/02 02:32:15;;;;;;;22.33;10.27;;;;;;;1.81;62.47;102296.72;4997705;28;20124;-77
2022/03/02 02:34:41;;;;;;;23.80;10.63;;;;;;;1.79;63.12;102295.94;4983190;28;20784;-77
2022/03/02 02:37:07;;;;;;;20.63;10.00;;;;;;;1.77;63.01;102295.19;4998656;28;20044;-77
2022/03/02 02:39:35;;;;;;;20.45;9.75;;;;;;;1.73;63.37;102297.88;4986037;28;20448;-76
2022/03/02 02:42:05;;;;;;;22.67;10.32;;;;;;;1.71;63.29;102286.88;5000706;28;21752;-77
2022/03/02 02:44:32;;;;;;;23.27;9.88;;;;;;;1.68;63.50;102289.56;5000697;28;20065;-79
2022/03/02 02:46:59;;;;;;;21.77;9.98;;;;;;;1.67;63.57;102284.50;4986825;28;20033;-77
2022/03/02 02:49:25;;;;;;;19.48;9.57;;;;;;;1.65;61.46;102282.00;4995566;28;20076;-76
2022/03/02 02:51:51;;;;;;;20.65;9.45;;;;;;;1.61;60.63;102288.13;5003506;28;20116;-77
2022/03/02 02:54:17;;;;;;;20.60;8.88;;;;;;;1.60;60.14;102278.81;5000419;28;20058;-76
2022/03/02 02:56:42;;;;;;;22.10;8.88;;;;;;;1.57;60.36;102271.25;4980500;28;20827;-77
2022/03/02 02:59:07;;;;;;;20.27;9.15;;;;;;;1.54;60.24;102273.94;4982654;28;20030;-77
2022/03/02 03:01:33;;;;;;;24.17;9.63;;;;;;;1.54;59.98;102279.03;4985601;28;20095;-79
2022/03/02 03:03:58;;;;;;;18.95;9.25;;;;;;;1.52;60.48;102275.72;5002492;28;20034;-76
2022/03/02 03:06:24;;;;;;;20.05;9.02;;;;;;;1.49;60.91;102276.69;4983634;28;20046;-76
2022/03/02 03:08:49;;;;;;;18.52;9.45;;;;;;;1.48;61.96;102263.94;4999486;28;20048;-76
2022/03/02 03:11:15;;;;;;;19.23;8.85;;;;;;;1.45;62.76;102270.03;4982311;28;20632;-76
2022/03/02 03:13:40;;;;;;;23.70;10.52;;;;;;;1.43;63.49;102265.84;4995649;28;20034;-77
2022/03/02 03:16:07;;;;;;;19.08;9.63;;;;;;;1.38;64.41;102266.03;4981392;28;20447;-77
2022/03/02 03:18:32;;;;;;;21.10;9.48;;;;;;;1.34;64.43;102272.19;4969409;28;20030;-77
2022/03/02 03:20:58;;;;;;;18.38;9.50;;;;;;;1.29;64.54;102263.84;4983650;28;20045;-76
2022/03/02 03:23:23;;;;;;;18.73;9.13;;;;;;;1.28;63.90;102262.16;4997185;28;20029;-79
2022/03/02 03:25:49;;;;;;;18.05;8.48;;;;;;;1.26;63.51;102264.81;4997596;28;20116;-76
2022/03/02 03:28:14;;;;;;;19.17;9.57;;;;;;;1.25;63.66;102265.69;4981539;28;20073;-76
2022/03/02 03:30:40;;;;;;;18.70;9.13;;;;;;;1.22;63.78;102258.13;4982478;28;20041;-77
2022/03/02 03:33:05;;;;;;;20.95;9.52;;;;;;;1.21;63.12;102253.94;4982470;28;20041;-76
2022/03/02 03:35:31;;;;;;;19.60;8.80;;;;;;;1.21;63.04;102258.22;4970770;28;20417;-76
2022/03/02 03:37:57;;;;;;;18.40;8.40;;;;;;;1.19;63.20;102263.38;4996285;28;20489;-76
2022/03/02 03:40:22;;;;;;;20.08;8.70;;;;;;;1.19;63.35;102258.28;4963207;28;20546;-77
2022/03/02 03:42:50;;;;;;;19.50;9.15;;;;;;;1.16;64.00;102260.94;4992289;28;20383;-76
2022/03/02 03:45:16;;;;;;;21.08;9.40;;;;;;;1.14;64.69;102258.44;4986944;28;20042;-77
2022/03/02 03:47:42;;;;;;;28.05;9.77;;;;;;;1.17;62.92;102253.22;4983338;28;20122;-76
2022/03/02 03:50:09;;;;;;;17.65;9.25;;;;;;;1.10;63.38;102254.34;5000859;28;20053;-77
2022/03/02 03:52:35;;;;;;;19.38;9.52;;;;;;;1.05;63.83;102250.28;4966777;28;20038;-78
2022/03/02 03:55:02;;;;;;;19.73;9.43;;;;;;;1.03;64.30;102254.63;4969387;28;20524;-77
2022/03/02 03:57:27;;;;;;;22.15;8.88;;;;;;;0.99;64.84;102265.84;4998241;28;20034;-76
2022/03/02 03:59:53;;;;;;;20.45;9.50;;;;;;;0.95;65.62;102260.03;4985962;28;20095;-76
2022/03/02 04:02:18;;;;;;;18.92;9.50;;;;;;;0.90;65.99;102257.63;4983034;28;20393;-76
2022/03/02 04:04:44;;;;;;;20.15;9.80;;;;;;;0.89;66.67;102260.28;4984957;28;20519;-76
2022/03/02 04:07:09;;;;;;;23.25;10.05;;;;;;;0.86;66.54;102256.09;4999976;28;20092;-78
2022/03/02 04:09:35;;;;;;;19.70;10.07;;;;;;;0.84;67.14;102250.22;4980487;28;20044;-77
2022/03/02 04:12:00;;;;;;;18.88;9.65;;;;;;;0.84;67.23;102242.53;4999055;28;20030;-76
2022/03/02 04:14:26;;;;;;;24.70;10.25;;;;;;;0.84;66.75;102251.94;5000033;28;20481;-76
2022/03/02 04:16:51;;;;;;;23.50;9.77;;;;;;;0.82;67.46;102249.44;4983742;28;20328;-76
2022/03/02 04:19:18;;;;;;;24.15;9.95;;;;;;;0.83;67.48;102246.00;5002395;28;20041;-76
2022/03/02 04:21:44;;;;;;;21.13;10.30;;;;;;;0.81;68.00;102244.38;4965047;28;20061;-76
2022/03/02 04:24:09;;;;;;;23.75;10.20;;;;;;;0.76;68.26;102235.19;4982090;28;20044;-78
2022/03/02 04:26:35;;;;;;;24.23;10.18;;;;;;;0.74;68.18;102241.25;4999918;28;20048;-78
2022/03/02 04:29:00;;;;;;;24.48;10.93;;;;;;;0.72;67.74;102243.84;4978278;28;20516;-78
2022/03/02 04:31:26;;;;;;;21.38;9.65;;;;;;;0.73;68.10;102242.13;5004733;28;20030;-76
2022/03/02 04:33:52;;;;;;;18.90;9.65;;;;;;;0.73;68.24;102237.00;4971994;28;20180;-76
2022/03/02 04:36:17;;;;;;;24.50;10.35;;;;;;;0.72;68.11;102238.75;4969967;28;20042;-77
2022/03/02 04:38:43;;;;;;;23.17;10.38;;;;;;;0.71;67.97;102226.84;5000868;28;20077;-76
2022/03/02 04:41:08;;;;;;;20.73;9.70;;;;;;;0.71;68.31;102229.41;4973721;28;20042;-76
2022/03/02 04:43:34;;;;;;;23.83;9.82;;;;;;;0.71;68.08;102228.56;4991213;28;20033;-76
2022/03/02 04:45:59;;;;;;;22.65;9.55;;;;;;;0.71;68.38;102231.13;4992468;28;20045;-76
2022/03/02 04:48:25;;;;;;;22.45;9.75;;;;;;;0.70;68.53;102226.94;4989919;28;20038;-78
2022/03/02 04:50:50;;;;;;;20.08;10.00;;;;;;;0.69;68.83;102231.19;5003308;28;20116;-77
2022/03/02 04:53:16;;;;;;;24.80;11.27;;;;;;;0.68;68.92;102231.22;5003080;28;20762;-76
2022/03/02 04:55:44;;;;;;;19.20;10.05;;;;;;;0.65;68.81;102232.19;4987847;28;20507;-76
2022/03/02 04:58:11;;;;;;;19.58;9.48;;;;;;;0.64;68.98;102229.69;5005937;28;20074;-76
2022/03/02 05:00:37;;;;;;;21.48;9.90;;;;;;;0.62;68.35;102216.97;4987943;28;20032;-76
2022/03/02 05:03:05;;;;;;;19.67;9.20;;;;;;;0.63;68.61;102217.81;4989915;28;20475;-76
2022/03/02 05:05:33;;;;;;;19.05;9.98;;;;;;;0.63;68.62;102220.38;4989526;28;20029;-77
2022/03/02 05:07:58;;;;;;;25.75;10.02;;;;;;;0.62;68.65;102222.06;4987410;28;20029;-77
2022/03/02 05:10:25;;;;;;;24.50;10.80;;;;;;;0.62;68.46;102211.03;5003147;28;20378;-77
2022/03/02 05:12:51;;;;;;;21.27;9.27;;;;;;;0.61;68.44;102210.22;4988267;28;20045;-76
2022/03/02 05:15:19;;;;;;;19.65;9.82;;;;;;;0.62;68.71;102211.03;5006243;28;20046;-76
2022/03/02 05:17:46;;;;;;;26.58;9.68;;;;;;;0.61;69.08;102215.31;5005734;28;20456;-77
2022/03/02 05:20:13;;;;;;;20.95;10.10;;;;;;;0.60;69.01;102208.53;5006277;28;20128;-76
2022/03/02 05:22:39;;;;;;;22.75;10.70;;;;;;;0.60;69.12;102210.28;4989673;28;20030;-76
2022/03/02 05:25:07;;;;;;;19.90;9.90;;;;;;;0.58;69.81;102213.72;5003644;28;20480;-76
2022/03/02 05:27:32;;;;;;;21.42;10.27;;;;;;;0.57;69.71;102204.38;4988800;28;20037;-76
2022/03/02 05:29:58;;;;;;;25.02;10.35;;;;;;;0.57;69.11;102203.56;4971500;28;20065;-76
2022/03/02 05:32:23;;;;;;;22.92;10.45;;;;;;;0.56;69.41;102205.25;5004398;28;20499;-76
2022/03/02 05:34:49;;;;;;;20.65;9.65;;;;;;;0.56;69.34;102212.91;4983247;28;20037;-78
2022/03/02 05:37:14;;;;;;;28.30;11.20;;;;;;;0.55;69.37;102215.56;4987878;28;20046;-76
2022/03/02 05:39:39;;;;;;;20.63;9.88;;;;;;;0.51;70.66;102219.94;4987545;28;20041;-78
2022/03/02 05:42:06;;;;;;;23.20;10.23;;;;;;;0.49;71.08;102206.41;4987235;28;20022;-77
2022/03/02 05:44:31;;;;;;;22.23;9.57;;;;;;;0.44;71.55;102203.19;4988306;28;20045;-77
2022/03/02 05:46:57;;;;;;;23.42;10.45;;;;;;;0.39;71.54;102212.72;4972059;28;20258;-75
2022/03/02 05:49:22;;;;;;;23.55;10.88;;;;;;;0.37;72.11;102217.03;4971369;28;20378;-76
2022/03/02 05:51:48;;;;;;;23.05;10.80;;;;;;;0.35;71.86;102213.72;5002917;28;20030;-76
2022/03/02 05:54:14;;;;;;;21.25;10.32;;;;;;;0.35;71.73;102218.81;5005368;28;20305;-77
2022/03/02 05:56:39;;;;;;;24.52;10.55;;;;;;;0.34;72.41;102214.59;5001537;28;20037;-76
2022/03/02 05:59:06;;;;;;;21.63;9.35;;;;;;;0.33;71.90;102220.59;4999160;28;20400;-76
2022/03/02 06:01:33;;;;;;;21.05;9.98;;;;;;;0.31;71.80;102223.19;4972241;28;20037;-76
2022/03/02 06:04:00;;;;;;;24.17;10.13;;;;;;;0.30;71.64;102215.59;5002097;28;20038;-76
2022/03/02 06:06:26;;;;;;;20.23;10.32;;;;;;;0.29;72.17;102219.88;4985982;28;20049;-76
2022/03/02 06:08:51;;;;;;;21.05;9.95;;;;;;;0.27;71.72;102224.19;4971060;28;20076;-76
2022/03/02 06:11:17;;;;;;;23.48;9.85;;;;;;;0.27;71.49;102216.53;4990128;28;20037;-76
2022/03/02 06:13:42;;;;;;;24.35;9.45;;;;;;;0.26;71.35;102224.25;5004351;28;20044;-76
2022/03/02 06:16:08;;;;;;;29.67;10.55;;;;;;;0.28;71.46;102222.47;5006868;28;20404;-76
2022/03/02 06:18:34;;;;;;;26.42;10.68;;;;;;;0.26;71.50;102216.59;4973892;28;20055;-76
2022/03/02 06:21:01;;;;;;;26.20;10.73;;;;;;;0.26;71.55;102221.69;5003062;28;20037;-76
2022/03/02 06:23:31;;;;;;;25.55;10.48;;;;;;;0.26;71.33;102225.06;5005472;28;20228;-77
2022/03/02 06:25:57;;;;;;;20.20;9.75;;;;;;;0.26;71.89;102214.88;4983714;28;20025;-77
2022/03/02 06:28:24;;;;;;;23.00;10.25;;;;;;;0.27;71.76;102226.75;5002665;28;20455;-79
2022/03/02 06:30:49;;;;;;;22.92;10.15;;;;;;;0.28;71.57;102225.84;4987909;28;20033;-77
2022/03/02 06:33:18;;;;;;;29.40;11.00;;;;;;;0.30;71.79;102223.25;4987674;28;20040;-76
2022/03/02 06:35:44;;;;;;;20.27;10.93;;;;;;;0.33;71.35;102220.59;4987228;28;20038;-76
2022/03/02 06:38:10;;;;;;;24.15;11.27;;;;;;;0.34;71.79;102222.25;5002582;28;20501;-77
2022/03/02 06:40:36;;;;;;;28.35;11.15;;;;;;;0.37;71.31;102215.31;5004234;28;20044;-77
2022/03/02 06:43:08;;;;;;;20.88;11.40;;;;;;;0.41;70.76;102218.59;5001502;28;20092;-76
2022/03/02 06:45:52;;;;;;;27.70;12.00;;;;;;;0.43;70.67;102214.25;4970583;28;20072;-76
2022/03/02 06:48:21;;;;;;;20.85;10.82;;;;;;;0.45;70.81;102215.03;5002343;28;20053;-76
2022/03/02 06:50:52;;;;;;;29.45;10.75;;;;;;;0.47;70.88;102225.19;5001503;28;20093;-76
2022/03/02 06:53:19;;;;;;;22.98;10.20;;;;;;;0.50;70.92;102223.38;4984165;28;20081;-77
2022/03/02 06:55:44;;;;;;;25.52;11.15;;;;;;;0.52;70.75;102221.59;5002540;28;21353;-76
2022/03/02 06:58:12;;;;;;;22.38;10.48;;;;;;;0.55;70.19;102220.66;4986176;28;20044;-76
2022/03/02 07:00:38;;;;;;;28.15;11.68;;;;;;;0.59;70.61;102222.22;5003352;28;20095;-76
2022/03/02 07:03:11;;;;;;;24.58;10.88;;;;;;;0.65;70.42;102218.59;5002230;28;20037;-76
2022/03/02 07:05:37;;;;;;;27.93;11.07;;;;;;;0.68;71.38;102223.56;4985848;28;20038;-76
2022/03/02 07:08:04;;;;;;;26.48;11.27;;;;;;;0.71;71.66;102221.75;5001541;28;20503;-76
2022/03/02 07:10:35;;;;;;;20.63;10.27;;;;;;;0.75;71.97;102227.56;4985415;28;20552;-76
2022/03/02 07:13:03;;;;;;;22.02;10.75;;;;;;;0.77;72.27;102224.09;5000375;28;20060;-76
2022/03/02 07:15:30;;;;;;;28.45;11.35;;;;;;;0.83;72.46;102219.63;5000560;28;20673;-76
2022/03/02 07:17:58;;;;;;;26.52;11.55;;;;;;;0.88;72.79;102231.31;5002144;28;20034;-76
2022/03/02 07:20:26;;;;;;;25.35;12.00;;;;;;;0.96;72.84;102228.47;5003388;28;20026;-76
2022/03/02 07:22:53;;;;;;;24.33;10.20;;;;;;;1.08;72.45;102230.56;4976241;28;20062;-76
2022/03/02 07:25:24;;;;;;;27.20;12.30;;;;;;;1.30;71.73;102242.50;5000171;28;20037;-76
2022/03/02 07:27:50;;;;;;;25.85;10.77;;;;;;;1.52;70.62;102240.75;4983952;28;20435;-76
2022/03/02 07:30:16;;;;;;;29.10;10.77;;;;;;;1.85;69.24;102235.16;4998766;28;20096;-76
2022/03/02 07:32:45;;;;;;;19.80;9.60;;;;;;;2.23;67.72;102234.41;4986804;28;20037;-76
2022/03/02 07:35:12;;;;;;;22.63;10.95;;;;;;;2.66;65.64;102238.47;4986347;28;20153;-76
2022/03/02 07:37:38;;;;;;;19.88;9.73;;;;;;;3.01;64.16;102230.88;4986431;28;20033;-76
2022/03/02 07:40:06;;;;;;;21.85;10.77;;;;;;;3.28;63.11;102227.91;5001417;28;20076;-77
2022/03/02 07:42:33;;;;;;;46.70;18.20;;;;;;;3.54;61.91;102221.50;5003641;28;20392;-76
2022/03/02 07:44:59;;;;;;;31.98;13.23;;;;;;;3.76;60.68;102218.72;4973823;28;20037;-76
2022/03/02 07:47:25;;;;;;;25.73;11.75;;;;;;;4.15;59.18;102219.34;5006742;28;20030;-76
2022/03/02 07:49:51;;;;;;;24.85;10.77;;;;;;;4.57;57.80;102215.41;5003714;28;20073;-76
2022/03/02 07:52:20;;;;;;;20.10;10.05;;;;;;;4.88;56.51;102217.16;5008829;28;20040;-76
2022/03/02 07:54:52;;;;;;;19.65;9.80;;;;;;;5.19;54.82;102211.13;5003399;28;20033;-77
2022/03/02 07:57:17;;;;;;;24.38;10.20;;;;;;;5.36;53.35;102207.59;5001036;28;20037;-76
2022/03/02 07:59:44;;;;;;;19.30;9.75;;;;;;;5.59;52.43;102210.59;5003407;28;20045;-76
2022/03/02 08:02:13;;;;;;;24.33;9.60;;;;;;;5.89;51.84;102212.28;4973118;28;20030;-76
2022/03/02 08:04:40;;;;;;;21.92;10.00;;;;;;;6.03;50.68;102207.19;4999044;28;20188;-78
2022/03/02 08:07:06;;;;;;;21.10;11.07;;;;;;;6.23;49.98;102195.66;5003069;28;20037;-76
2022/03/02 08:09:32;;;;;;;21.17;9.82;;;;;;;6.54;48.69;102197.19;4989373;28;20516;-76
2022/03/02 08:11:59;;;;;;;23.20;10.60;;;;;;;6.72;47.72;102192.63;4990825;28;20095;-76
2022/03/02 08:14:25;;;;;;;24.00;10.30;;;;;;;7.08;47.30;102185.22;4989119;28;20089;-77
2022/03/02 08:16:52;;;;;;;25.00;9.35;;;;;;;7.30;45.14;102187.22;4976969;28;20038;-77
2022/03/02 08:19:18;;;;;;;23.65;10.20;;;;;;;7.63;44.92;102181.59;4990232;28;20021;-77
2022/03/02 08:21:50;;;;;;;19.83;10.27;;;;;;;7.79;43.80;102184.78;4987727;28;20038;-77
2022/03/02 08:24:17;;;;;;;19.98;9.93;;;;;;;8.03;43.91;102191.78;5008315;28;20361;-76
2022/03/02 08:26:47;;;;;;;21.50;9.48;;;;;;;8.47;43.48;102187.88;4993995;28;20550;-78
2022/03/02 08:29:13;;;;;;;19.73;9.40;;;;;;;8.81;41.38;102187.25;5004110;28;20049;-76
2022/03/02 08:31:41;;;;;;;19.02;9.95;;;;;;;8.88;41.85;102178.94;5018689;28;20456;-76
2022/03/02 08:34:07;;;;;;;23.75;9.35;;;;;;;8.75;41.31;102179.00;4985456;28;20084;-77
2022/03/02 08:36:34;;;;;;;20.27;9.90;;;;;;;8.82;42.22;102181.16;5004295;28;20543;-77
2022/03/02 08:39:03;;;;;;;24.65;10.98;;;;;;;8.98;40.87;102176.50;4975776;28;20026;-77
2022/03/02 08:41:28;;;;;;;18.27;8.80;;;;;;;8.24;40.73;102181.72;5005044;28;20405;-77
2022/03/02 08:43:54;;;;;;;18.60;9.63;;;;;;;8.19;40.97;102183.78;4993884;28;20040;-78
2022/03/02 08:46:19;;;;;;;18.20;9.20;;;;;;;8.48;41.09;102179.22;4992428;28;20088;-77
2022/03/02 08:48:45;;;;;;;20.20;9.52;;;;;;;8.52;41.49;102175.47;4986148;28;20103;-77
2022/03/02 08:51:10;;;;;;;21.63;9.93;;;;;;;8.96;42.13;102171.44;4968842;28;20479;-77
2022/03/02 08:53:38;;;;;;;27.30;11.20;;;;;;;9.04;39.99;102170.06;4988753;28;20420;-77
2022/03/02 08:56:05;;;;;;;23.00;9.75;;;;;;;9.49;40.16;102171.00;4990720;28;20131;-77
2022/03/02 08:58:31;;;;;;;20.02;9.70;;;;;;;9.84;40.22;102164.09;4987716;28;20025;-77
2022/03/02 09:00:59;;;;;;;16.65;9.15;;;;;;;10.03;40.49;102158.31;4990337;28;20045;-77
2022/03/02 09:03:25;;;;;;;23.65;8.93;;;;;;;9.97;38.19;102158.78;4991135;28;20125;-78
2022/03/02 09:05:52;;;;;;;20.70;9.48;;;;;;;10.01;39.01;102152.41;4990783;28;20041;-78
2022/03/02 09:08:18;;;;;;;23.77;8.23;;;;;;;9.90;39.13;102156.66;4992545;28;20081;-77
2022/03/02 09:10:44;;;;;;;18.00;8.77;;;;;;;10.07;39.59;102147.56;4994104;28;20034;-77
2022/03/02 09:13:12;;;;;;;15.82;8.48;;;;;;;10.23;38.93;102143.81;4993789;28;20095;-78
2022/03/02 09:15:41;;;;;;;20.90;9.18;;;;;;;10.34;38.43;102141.22;4989121;28;20034;-77
2022/03/02 09:18:07;;;;;;;14.70;8.25;;;;;;;10.04;36.72;102153.00;4971464;28;20044;-78
2022/03/02 09:20:33;;;;;;;14.52;8.48;;;;;;;9.78;36.70;102155.03;5001910;28;20413;-77
2022/03/02 09:23:02;;;;;;;20.50;8.88;;;;;;;9.78;36.95;102149.84;5000739;28;20313;-78
2022/03/02 09:25:30;;;;;;;18.92;8.75;;;;;;;9.59;38.25;102153.00;4991804;28;20417;-77
2022/03/02 09:27:56;;;;;;;17.23;7.82;;;;;;;9.75;38.53;102155.25;4982903;28;20121;-78
2022/03/02 09:30:22;;;;;;;17.13;8.10;;;;;;;9.11;37.40;102143.59;5010587;28;20096;-77
2022/03/02 09:32:52;;;;;;;18.25;8.25;;;;;;;9.06;38.12;102137.13;4978280;28;20022;-77
2022/03/02 09:35:19;;;;;;;15.98;7.93;;;;;;;9.00;38.97;102138.41;4972967;28;20592;-77
2022/03/02 09:37:49;;;;;;;16.02;8.48;;;;;;;8.73;40.15;102144.66;4995267;28;20071;-77
2022/03/02 09:40:29;;;;;;;19.00;9.70;;;;;;;8.48;39.83;102145.59;4993111;28;20038;-78
2022/03/02 09:43:00;;;;;;;14.52;7.90;;;;;;;8.60;40.66;102143.06;4990733;28;20481;-77
2022/03/02 09:45:29;;;;;;;14.77;7.95;;;;;;;8.74;38.56;102140.34;4997445;28;20030;-78
2022/03/02 09:47:57;;;;;;;15.70;8.63;;;;;;;8.69;39.22;102137.25;5006037;28;20443;-77
2022/03/02 09:50:26;;;;;;;13.85;7.28;;;;;;;8.34;39.38;102136.22;4968347;28;20084;-77
2022/03/02 09:52:54;;;;;;;14.48;7.70;;;;;;;8.49;39.36;102136.09;5006041;28;20648;-77
2022/03/02 09:55:24;;;;;;;16.92;8.63;;;;;;;8.42;38.54;102132.28;5004523;28;20053;-77
2022/03/02 09:57:57;;;;;;;14.02;8.02;;;;;;;8.46;39.40;102131.97;4989441;28;20116;-78
2022/03/02 10:00:25;;;;;;;14.25;8.10;;;;;;;8.56;38.42;102127.78;4986649;28;20388;-77
2022/03/02 10:02:55;;;;;;;15.40;8.43;;;;;;;8.65;38.54;102128.88;4988331;28;20489;-79
2022/03/02 10:05:26;;;;;;;14.55;7.90;;;;;;;8.53;39.11;102127.16;4987445;28;20038;-77
2022/03/02 10:08:00;;;;;;;18.73;8.20;;;;;;;8.54;40.65;102136.59;4983018;28;20034;-78
2022/03/02 10:10:28;;;;;;;17.88;8.52;;;;;;;8.35;41.27;102137.03;4975830;28;20432;-77
2022/03/02 10:12:59;;;;;;;18.95;8.65;;;;;;;8.35;41.68;102139.63;4985614;28;20119;-77
2022/03/02 10:15:25;;;;;;;14.00;8.25;;;;;;;8.32;41.23;102140.66;4989483;28;20101;-77
2022/03/02 10:17:52;;;;;;;26.10;9.43;;;;;;;8.36;41.54;102138.69;4984796;28;20034;-78
2022/03/02 10:20:26;;;;;;;13.20;7.70;;;;;;;8.35;40.74;102140.44;5013613;28;20040;-78
2022/03/02 10:23:14;;;;;;;16.20;8.52;;;;;;;8.29;41.56;102140.06;4987287;28;20564;-77
2022/03/02 10:26:03;;;;;;;14.55;7.53;;;;;;;8.45;40.50;102140.66;4975374;28;20045;-78
2022/03/02 10:28:37;;;;;;;16.80;8.82;;;;;;;8.49;40.78;102141.25;4991718;28;20038;-77
2022/03/02 10:31:21;;;;;;;18.52;7.85;;;;;;;8.65;40.00;102141.81;4997697;28;20046;-78
2022/03/02 10:34:07;;;;;;;15.52;8.07;;;;;;;8.79;40.07;102134.81;5003930;28;20030;-78
2022/03/02 10:36:39;;;;;;;16.52;8.02;;;;;;;8.74;39.00;102124.81;5001082;28;20474;-78
2022/03/02 10:39:07;;;;;;;12.45;7.68;;;;;;;8.92;39.54;102125.22;4969885;28;20089;-78
2022/03/02 10:41:39;;;;;;;14.38;7.82;;;;;;;8.93;37.41;102124.28;5003829;28;20044;-78
2022/03/02 10:44:29;;;;;;;15.98;8.02;;;;;;;8.87;38.36;102119.53;4969857;28;20042;-78
2022/03/02 10:47:04;;;;;;;15.07;7.05;;;;;;;9.01;37.14;102111.59;4978924;28;20698;-78
2022/03/02 10:49:32;;;;;;;13.88;7.53;;;;;;;9.13;37.35;102115.03;4987009;28;20049;-78
2022/03/02 10:52:01;;;;;;;14.10;6.93;;;;;;;9.14;38.19;102111.53;4986341;28;20488;-78
2022/03/02 10:54:30;;;;;;;13.60;7.25;;;;;;;9.16;38.33;102110.47;5005621;28;20499;-81
2022/03/02 10:57:02;;;;;;;18.77;7.93;;;;;;;9.30;36.47;102121.53;4985578;28;20463;-78
2022/03/02 10:59:30;;;;;;;14.80;7.72;;;;;;;9.28;35.94;102108.72;5003623;28;20038;-79
2022/03/02 11:01:56;;;;;;;15.73;7.60;;;;;;;9.20;36.23;102107.66;4983228;28;20072;-78
2022/03/02 11:04:22;;;;;;;14.65;7.53;;;;;;;9.17;37.21;102103.50;5004079;28;20400;-79
2022/03/02 11:06:48;;;;;;;14.43;7.55;;;;;;;9.30;36.51;102104.22;4986718;28;20044;-79
2022/03/02 11:09:17;;;;;;;14.95;7.93;;;;;;;9.31;36.85;102098.13;5002886;28;20026;-78
2022/03/02 11:11:43;;;;;;;13.52;7.65;;;;;;;9.39;37.81;102105.31;4984896;28;20473;-78
2022/03/02 11:14:09;;;;;;;16.00;8.13;;;;;;;9.34;37.81;102104.84;4999299;28;20041;-81
2022/03/02 11:16:35;;;;;;;18.92;7.43;;;;;;;9.25;37.70;102092.56;5003193;28;20341;-77
2022/03/02 11:19:15;;;;;;;16.02;8.85;;;;;;;9.20;37.86;102094.72;4996624;28;20039;-78
2022/03/02 11:21:43;;;;;;;13.05;7.82;;;;;;;9.39;37.17;102097.53;5002720;28;20034;-78